sensor_id;sensor_type;location;lat;lon;timestamp;pressure;altitude;pressure_sealevel;temperature;humidity
53041;BME280;39326;42.650;23.248;2024-03-08T00:00:32;92514.91;;;3.29;92.63
53041;BME280;39326;42.650;23.248;2024-03-08T00:02:58;92524.38;;;3.46;92.61
53041;BME280;39326;42.650;23.248;2024-03-08T00:05:24;92514.06;;;3.41;92.80
53041;BME280;39326;42.650;23.248;2024-03-08T00:07:49;92516.56;;;3.49;92.56
53041;BME280;39326;42.650;23.248;2024-03-08T00:10:15;92519.78;;;3.58;92.20
53041;BME280;39326;42.650;23.248;2024-03-08T00:12:42;92514.00;;;3.53;92.31
53041;BME280;39326;42.650;23.248;2024-03-08T00:15:09;92508.50;;;3.58;92.08
53041;BME280;39326;42.650;23.248;2024-03-08T00:17:36;92505.34;;;3.52;91.84
53041;BME280;39326;42.650;23.248;2024-03-08T00:20:02;92511.97;;;3.62;91.37
53041;BME280;39326;42.650;23.248;2024-03-08T00:22:37;92505.50;;;3.59;91.45
53041;BME280;39326;42.650;23.248;2024-03-08T00:25:06;92500.31;;;3.63;91.44
53041;BME280;39326;42.650;23.248;2024-03-08T00:27:34;92502.19;;;3.63;91.69
53041;BME280;39326;42.650;23.248;2024-03-08T00:29:59;92499.31;;;3.68;91.74
53041;BME280;39326;42.650;23.248;2024-03-08T00:32:25;92496.66;;;3.52;91.96
53041;BME280;39326;42.650;23.248;2024-03-08T00:34:53;92492.16;;;3.52;92.07
53041;BME280;39326;42.650;23.248;2024-03-08T00:37:19;92498.28;;;3.56;91.87
53041;BME280;39326;42.650;23.248;2024-03-08T00:39:45;92501.50;;;3.50;91.76
53041;BME280;39326;42.650;23.248;2024-03-08T00:42:10;92493.16;;;3.32;92.63
53041;BME280;39326;42.650;23.248;2024-03-08T00:44:36;92497.84;;;3.23;93.32
53041;BME280;39326;42.650;23.248;2024-03-08T00:47:01;92498.16;;;3.21;93.28
53041;BME280;39326;42.650;23.248;2024-03-08T00:49:27;92487.66;;;3.37;92.89
53041;BME280;39326;42.650;23.248;2024-03-08T00:51:52;92488.22;;;3.46;92.47
53041;BME280;39326;42.650;23.248;2024-03-08T00:54:18;92488.47;;;3.41;92.53
53041;BME280;39326;42.650;23.248;2024-03-08T00:56:43;92482.88;;;3.43;92.27
53041;BME280;39326;42.650;23.248;2024-03-08T00:59:11;92483.47;;;3.52;91.37
53041;BME280;39326;42.650;23.248;2024-03-08T01:01:36;92478.88;;;3.33;92.17
53041;BME280;39326;42.650;23.248;2024-03-08T01:04:01;92481.63;;;3.08;93.24
53041;BME280;39326;42.650;23.248;2024-03-08T01:06:27;92486.66;;;3.14;93.70
53041;BME280;39326;42.650;23.248;2024-03-08T01:08:52;92478.28;;;3.24;92.92
53041;BME280;39326;42.650;23.248;2024-03-08T01:11:18;92475.13;;;3.18;92.88
53041;BME280;39326;42.650;23.248;2024-03-08T01:13:44;92479.94;;;3.16;92.83
53041;BME280;39326;42.650;23.248;2024-03-08T01:16:12;92476.72;;;3.07;93.29
53041;BME280;39326;42.650;23.248;2024-03-08T01:18:38;92480.69;;;3.01;93.37
53041;BME280;39326;42.650;23.248;2024-03-08T01:21:03;92474.22;;;2.70;94.36
53041;BME280;39326;42.650;23.248;2024-03-08T01:23:29;92475.41;;;2.85;93.97
53041;BME280;39326;42.650;23.248;2024-03-08T01:25:55;92471.03;;;2.77;94.60
53041;BME280;39326;42.650;23.248;2024-03-08T01:28:25;92466.69;;;2.85;93.97
53041;BME280;39326;42.650;23.248;2024-03-08T01:30:51;92464.56;;;2.74;94.14
53041;BME280;39326;42.650;23.248;2024-03-08T01:33:23;92466.06;;;2.88;94.04
53041;BME280;39326;42.650;23.248;2024-03-08T01:35:53;92471.09;;;3.08;93.06
53041;BME280;39326;42.650;23.248;2024-03-08T01:38:19;92468.22;;;3.14;93.49
53041;BME280;39326;42.650;23.248;2024-03-08T01:40:47;92445.28;;;3.14;92.58
53041;BME280;39326;42.650;23.248;2024-03-08T01:43:24;92469.03;;;3.30;92.21
53041;BME280;39326;42.650;23.248;2024-03-08T01:45:50;92468.34;;;3.33;91.80
53041;BME280;39326;42.650;23.248;2024-03-08T01:48:17;92459.31;;;3.34;91.51
53041;BME280;39326;42.650;23.248;2024-03-08T01:50:43;92461.63;;;3.36;91.66
53041;BME280;39326;42.650;23.248;2024-03-08T01:53:09;92460.66;;;3.12;91.66
53041;BME280;39326;42.650;23.248;2024-03-08T01:55:37;92460.81;;;3.03;92.36
53041;BME280;39326;42.650;23.248;2024-03-08T01:58:04;92458.03;;;3.12;92.17
53041;BME280;39326;42.650;23.248;2024-03-08T02:00:30;92453.53;;;3.13;92.25
53041;BME280;39326;42.650;23.248;2024-03-08T02:02:57;92454.81;;;3.19;92.23
53041;BME280;39326;42.650;23.248;2024-03-08T02:07:56;92456.38;;;2.92;92.76
53041;BME280;39326;42.650;23.248;2024-03-08T02:10:22;92449.59;;;3.06;92.66
53041;BME280;39326;42.650;23.248;2024-03-08T02:12:48;92457.75;;;3.01;92.50
53041;BME280;39326;42.650;23.248;2024-03-08T02:15:13;92454.25;;;2.97;93.13
53041;BME280;39326;42.650;23.248;2024-03-08T02:17:40;92455.13;;;3.01;92.94
53041;BME280;39326;42.650;23.248;2024-03-08T02:20:05;92461.44;;;2.85;93.61
53041;BME280;39326;42.650;23.248;2024-03-08T02:22:31;92456.75;;;2.78;93.11
53041;BME280;39326;42.650;23.248;2024-03-08T02:24:59;92463.00;;;2.86;93.95
53041;BME280;39326;42.650;23.248;2024-03-08T02:27:28;92457.09;;;3.04;92.83
53041;BME280;39326;42.650;23.248;2024-03-08T02:29:55;92459.22;;;3.15;92.52
53041;BME280;39326;42.650;23.248;2024-03-08T02:32:22;92459.38;;;3.22;91.86
53041;BME280;39326;42.650;23.248;2024-03-08T02:34:48;92457.63;;;3.26;91.58
53041;BME280;39326;42.650;23.248;2024-03-08T02:37:15;92458.78;;;3.28;91.01
53041;BME280;39326;42.650;23.248;2024-03-08T02:39:40;92464.16;;;3.32;91.66
53041;BME280;39326;42.650;23.248;2024-03-08T02:42:06;92453.13;;;3.26;91.79
53041;BME280;39326;42.650;23.248;2024-03-08T02:44:32;92457.19;;;3.24;92.39
53041;BME280;39326;42.650;23.248;2024-03-08T02:46:59;92464.13;;;3.16;91.82
53041;BME280;39326;42.650;23.248;2024-03-08T02:49:25;92460.09;;;3.19;91.94
53041;BME280;39326;42.650;23.248;2024-03-08T02:51:52;92461.94;;;3.18;92.05
53041;BME280;39326;42.650;23.248;2024-03-08T02:54:18;92461.25;;;3.21;92.33
53041;BME280;39326;42.650;23.248;2024-03-08T02:56:44;92459.84;;;3.24;92.43
53041;BME280;39326;42.650;23.248;2024-03-08T02:59:12;92462.53;;;3.27;92.53
53041;BME280;39326;42.650;23.248;2024-03-08T03:01:37;92460.16;;;3.22;92.11
53041;BME280;39326;42.650;23.248;2024-03-08T03:04:03;92468.47;;;3.08;93.15
53041;BME280;39326;42.650;23.248;2024-03-08T03:06:29;92464.53;;;3.02;92.08
53041;BME280;39326;42.650;23.248;2024-03-08T03:08:55;92468.03;;;3.06;91.55
53041;BME280;39326;42.650;23.248;2024-03-08T03:11:22;92459.72;;;2.76;92.24
53041;BME280;39326;42.650;23.248;2024-03-08T03:13:48;92464.06;;;2.85;92.21
53041;BME280;39326;42.650;23.248;2024-03-08T03:16:17;92467.00;;;2.95;92.42
53041;BME280;39326;42.650;23.248;2024-03-08T03:18:44;92470.25;;;3.04;91.76
53041;BME280;39326;42.650;23.248;2024-03-08T03:21:09;92474.41;;;3.05;91.87
53041;BME280;39326;42.650;23.248;2024-03-08T03:23:34;92466.00;;;3.00;90.72
53041;BME280;39326;42.650;23.248;2024-03-08T03:26:00;92475.78;;;2.99;90.87
53041;BME280;39326;42.650;23.248;2024-03-08T03:28:27;92480.94;;;2.96;91.11
53041;BME280;39326;42.650;23.248;2024-03-08T03:30:53;92481.94;;;2.91;90.79
53041;BME280;39326;42.650;23.248;2024-03-08T03:33:19;92481.16;;;2.91;90.28
53041;BME280;39326;42.650;23.248;2024-03-08T03:35:44;92481.31;;;2.82;90.12
53041;BME280;39326;42.650;23.248;2024-03-08T03:38:10;92480.19;;;2.67;89.16
53041;BME280;39326;42.650;23.248;2024-03-08T03:40:39;92487.31;;;2.67;88.70
53041;BME280;39326;42.650;23.248;2024-03-08T03:43:06;92486.59;;;2.54;88.21
53041;BME280;39326;42.650;23.248;2024-03-08T03:45:32;92486.25;;;2.56;87.79
53041;BME280;39326;42.650;23.248;2024-03-08T03:48:04;92494.13;;;2.56;87.94
53041;BME280;39326;42.650;23.248;2024-03-08T03:50:31;92500.41;;;2.51;87.77
53041;BME280;39326;42.650;23.248;2024-03-08T03:52:59;92508.50;;;2.46;86.76
53041;BME280;39326;42.650;23.248;2024-03-08T03:55:25;92504.78;;;2.47;87.50
53041;BME280;39326;42.650;23.248;2024-03-08T03:57:50;92511.16;;;2.46;86.98
53041;BME280;39326;42.650;23.248;2024-03-08T04:00:16;92505.00;;;2.54;88.17
53041;BME280;39326;42.650;23.248;2024-03-08T04:02:41;92504.31;;;2.57;87.76
53041;BME280;39326;42.650;23.248;2024-03-08T04:05:08;92514.75;;;2.53;88.29
53041;BME280;39326;42.650;23.248;2024-03-08T04:07:35;92501.69;;;2.57;87.96
53041;BME280;39326;42.650;23.248;2024-03-08T04:10:03;92519.22;;;2.65;87.55
53041;BME280;39326;42.650;23.248;2024-03-08T04:12:31;92518.44;;;2.65;86.89
53041;BME280;39326;42.650;23.248;2024-03-08T04:14:57;92526.88;;;2.70;86.77
53041;BME280;39326;42.650;23.248;2024-03-08T04:17:23;92521.41;;;2.63;87.79
53041;BME280;39326;42.650;23.248;2024-03-08T04:19:52;92521.28;;;2.72;88.46
53041;BME280;39326;42.650;23.248;2024-03-08T04:22:18;92530.81;;;2.76;88.14
53041;BME280;39326;42.650;23.248;2024-03-08T04:24:44;92523.34;;;2.78;88.02
53041;BME280;39326;42.650;23.248;2024-03-08T04:27:11;92527.41;;;2.76;87.46
53041;BME280;39326;42.650;23.248;2024-03-08T04:29:36;92534.66;;;2.79;87.18
53041;BME280;39326;42.650;23.248;2024-03-08T04:32:05;92534.66;;;2.79;87.69
53041;BME280;39326;42.650;23.248;2024-03-08T04:34:32;92538.72;;;2.76;87.74
53041;BME280;39326;42.650;23.248;2024-03-08T04:36:57;92535.75;;;2.78;87.82
53041;BME280;39326;42.650;23.248;2024-03-08T04:39:23;92537.41;;;2.70;87.54
53041;BME280;39326;42.650;23.248;2024-03-08T04:41:49;92542.44;;;2.75;87.49
53041;BME280;39326;42.650;23.248;2024-03-08T04:44:15;92540.78;;;2.83;87.56
53041;BME280;39326;42.650;23.248;2024-03-08T04:46:42;92540.94;;;2.74;88.04
53041;BME280;39326;42.650;23.248;2024-03-08T04:49:08;92534.94;;;2.49;87.94
53041;BME280;39326;42.650;23.248;2024-03-08T04:51:33;92541.72;;;2.63;88.65
53041;BME280;39326;42.650;23.248;2024-03-08T04:53:59;92535.72;;;2.50;88.06
53041;BME280;39326;42.650;23.248;2024-03-08T04:56:25;92540.31;;;2.41;88.42
53041;BME280;39326;42.650;23.248;2024-03-08T04:58:51;92543.03;;;2.57;88.12
53041;BME280;39326;42.650;23.248;2024-03-08T05:01:16;92546.97;;;2.63;87.90
53041;BME280;39326;42.650;23.248;2024-03-08T05:03:42;92553.56;;;2.69;88.20
53041;BME280;39326;42.650;23.248;2024-03-08T05:06:07;92526.16;;;2.58;87.25
53041;BME280;39326;42.650;23.248;2024-03-08T05:08:33;92549.94;;;2.73;87.73
53041;BME280;39326;42.650;23.248;2024-03-08T05:11:00;92548.28;;;2.69;87.88
53041;BME280;39326;42.650;23.248;2024-03-08T05:13:30;92555.97;;;2.74;87.93
53041;BME280;39326;42.650;23.248;2024-03-08T05:15:56;92561.66;;;2.76;87.76
53041;BME280;39326;42.650;23.248;2024-03-08T05:18:23;92551.25;;;2.67;88.44
53041;BME280;39326;42.650;23.248;2024-03-08T05:20:49;92563.41;;;2.72;88.34
53041;BME280;39326;42.650;23.248;2024-03-08T05:23:15;92561.88;;;2.71;88.61
53041;BME280;39326;42.650;23.248;2024-03-08T05:25:40;92565.59;;;2.70;88.19
53041;BME280;39326;42.650;23.248;2024-03-08T05:28:06;92574.81;;;2.76;88.14
53041;BME280;39326;42.650;23.248;2024-03-08T05:30:32;92571.31;;;2.72;88.28
53041;BME280;39326;42.650;23.248;2024-03-08T05:32:57;92582.50;;;2.69;88.12
53041;BME280;39326;42.650;23.248;2024-03-08T05:35:22;92586.34;;;2.71;88.61
53041;BME280;39326;42.650;23.248;2024-03-08T05:37:49;92588.75;;;2.64;88.18
53041;BME280;39326;42.650;23.248;2024-03-08T05:40:15;92588.97;;;2.59;88.25
53041;BME280;39326;42.650;23.248;2024-03-08T05:42:40;92587.38;;;2.55;88.36
53041;BME280;39326;42.650;23.248;2024-03-08T05:45:06;92605.03;;;2.42;88.84
53041;BME280;39326;42.650;23.248;2024-03-08T05:47:32;92598.66;;;2.31;89.12
53041;BME280;39326;42.650;23.248;2024-03-08T05:49:58;92602.06;;;2.31;90.23
53041;BME280;39326;42.650;23.248;2024-03-08T05:52:24;92613.47;;;2.23;89.50
53041;BME280;39326;42.650;23.248;2024-03-08T05:54:51;92613.47;;;2.23;90.31
53041;BME280;39326;42.650;23.248;2024-03-08T05:57:17;92596.59;;;2.36;89.98
53041;BME280;39326;42.650;23.248;2024-03-08T05:59:42;92604.34;;;2.45;89.32
53041;BME280;39326;42.650;23.248;2024-03-08T06:02:07;92612.47;;;2.52;89.31
53041;BME280;39326;42.650;23.248;2024-03-08T06:04:33;92609.84;;;2.52;89.12
53041;BME280;39326;42.650;23.248;2024-03-08T06:06:58;92625.97;;;2.38;89.37
53041;BME280;39326;42.650;23.248;2024-03-08T06:09:26;92625.31;;;2.41;89.65
53041;BME280;39326;42.650;23.248;2024-03-08T06:11:52;92629.56;;;2.34;89.55
53041;BME280;39326;42.650;23.248;2024-03-08T06:14:19;92624.97;;;2.18;89.44
53041;BME280;39326;42.650;23.248;2024-03-08T06:16:45;92625.31;;;2.29;89.96
53041;BME280;39326;42.650;23.248;2024-03-08T06:19:10;92634.72;;;2.18;90.76
53041;BME280;39326;42.650;23.248;2024-03-08T06:21:37;92639.31;;;2.21;90.83
53041;BME280;39326;42.650;23.248;2024-03-08T06:24:02;92635.91;;;2.20;90.95
53041;BME280;39326;42.650;23.248;2024-03-08T06:26:28;92634.50;;;2.23;90.94
53041;BME280;39326;42.650;23.248;2024-03-08T06:28:54;92632.09;;;2.30;90.57
53041;BME280;39326;42.650;23.248;2024-03-08T06:31:19;92632.97;;;2.34;90.32
53041;BME280;39326;42.650;23.248;2024-03-08T06:33:45;92638.22;;;2.34;90.73
53041;BME280;39326;42.650;23.248;2024-03-08T06:36:11;92637.38;;;2.42;90.71
53041;BME280;39326;42.650;23.248;2024-03-08T06:38:38;92636.28;;;2.56;89.90
53041;BME280;39326;42.650;23.248;2024-03-08T06:41:10;92641.19;;;2.57;89.63
53041;BME280;39326;42.650;23.248;2024-03-08T06:43:44;92637.69;;;2.53;89.77
53041;BME280;39326;42.650;23.248;2024-03-08T06:46:10;92636.69;;;2.58;90.24
53041;BME280;39326;42.650;23.248;2024-03-08T06:48:38;92647.44;;;2.65;89.76
53041;BME280;39326;42.650;23.248;2024-03-08T06:51:04;92639.78;;;2.35;90.25
53041;BME280;39326;42.650;23.248;2024-03-08T06:53:30;92641.06;;;2.53;90.12
53041;BME280;39326;42.650;23.248;2024-03-08T06:55:57;92649.53;;;2.47;90.29
53041;BME280;39326;42.650;23.248;2024-03-08T06:58:22;92650.94;;;2.32;91.09
53041;BME280;39326;42.650;23.248;2024-03-08T07:00:48;92651.16;;;2.27;92.01
53041;BME280;39326;42.650;23.248;2024-03-08T07:03:17;92658.28;;;2.26;92.60
53041;BME280;39326;42.650;23.248;2024-03-08T07:05:42;92657.88;;;2.49;91.62
53041;BME280;39326;42.650;23.248;2024-03-08T07:08:08;92651.38;;;2.46;91.77
53041;BME280;39326;42.650;23.248;2024-03-08T07:10:33;92645.28;;;2.55;91.70
53041;BME280;39326;42.650;23.248;2024-03-08T07:13:00;92654.16;;;2.62;91.48
53041;BME280;39326;42.650;23.248;2024-03-08T07:15:27;92654.22;;;2.78;91.00
53041;BME280;39326;42.650;23.248;2024-03-08T07:17:53;92641.75;;;2.75;90.76
53041;BME280;39326;42.650;23.248;2024-03-08T07:20:19;92653.38;;;2.62;91.52
53041;BME280;39326;42.650;23.248;2024-03-08T07:22:48;92654.34;;;2.69;91.45
53041;BME280;39326;42.650;23.248;2024-03-08T07:25:16;92655.56;;;2.72;91.18
53041;BME280;39326;42.650;23.248;2024-03-08T07:27:52;92663.03;;;2.70;92.12
53041;BME280;39326;42.650;23.248;2024-03-08T07:30:19;92662.78;;;2.87;90.93
53041;BME280;39326;42.650;23.248;2024-03-08T07:33:04;92662.56;;;2.92;91.72
53041;BME280;39326;42.650;23.248;2024-03-08T07:35:30;92662.47;;;2.89;91.17
53041;BME280;39326;42.650;23.248;2024-03-08T07:37:56;92668.50;;;2.77;91.71
53041;BME280;39326;42.650;23.248;2024-03-08T07:40:23;92669.03;;;2.83;91.37
53041;BME280;39326;42.650;23.248;2024-03-08T07:42:51;92667.72;;;2.89;91.71
53041;BME280;39326;42.650;23.248;2024-03-08T07:45:17;92662.47;;;2.89;91.20
53041;BME280;39326;42.650;23.248;2024-03-08T07:47:43;92670.56;;;2.84;91.16
53041;BME280;39326;42.650;23.248;2024-03-08T07:50:08;92673.66;;;2.86;90.89
53041;BME280;39326;42.650;23.248;2024-03-08T07:52:34;92668.81;;;3.00;90.90
53041;BME280;39326;42.650;23.248;2024-03-08T07:55:00;92671.88;;;3.02;90.80
53041;BME280;39326;42.650;23.248;2024-03-08T07:57:26;92668.69;;;2.96;90.35
53041;BME280;39326;42.650;23.248;2024-03-08T07:59:51;92669.16;;;2.98;90.07
53041;BME280;39326;42.650;23.248;2024-03-08T08:02:17;92662.63;;;3.08;90.37
53041;BME280;39326;42.650;23.248;2024-03-08T08:04:42;92672.34;;;3.04;89.12
53041;BME280;39326;42.650;23.248;2024-03-08T08:07:10;92670.44;;;3.17;89.71
53041;BME280;39326;42.650;23.248;2024-03-08T08:09:36;92669.66;;;3.16;89.38
53041;BME280;39326;42.650;23.248;2024-03-08T08:12:01;92670.19;;;3.22;89.34
53041;BME280;39326;42.650;23.248;2024-03-08T08:14:28;92668.75;;;3.24;88.95
53041;BME280;39326;42.650;23.248;2024-03-08T08:16:54;92672.78;;;3.34;88.82
53041;BME280;39326;42.650;23.248;2024-03-08T08:19:21;92669.72;;;3.32;88.58
53041;BME280;39326;42.650;23.248;2024-03-08T08:21:46;92665.38;;;3.24;88.61
53041;BME280;39326;42.650;23.248;2024-03-08T08:24:12;92669.91;;;3.11;89.14
53041;BME280;39326;42.650;23.248;2024-03-08T08:26:37;92671.50;;;3.28;88.78
53041;BME280;39326;42.650;23.248;2024-03-08T08:29:03;92674.63;;;3.46;88.85
53041;BME280;39326;42.650;23.248;2024-03-08T08:31:29;92671.28;;;3.61;87.06
53041;BME280;39326;42.650;23.248;2024-03-08T08:33:56;92659.44;;;3.55;86.74
53041;BME280;39326;42.650;23.248;2024-03-08T08:36:26;92669.16;;;3.67;86.42
53041;BME280;39326;42.650;23.248;2024-03-08T08:38:55;92665.50;;;3.55;87.93
53041;BME280;39326;42.650;23.248;2024-03-08T08:41:21;92669.38;;;3.74;87.24
53041;BME280;39326;42.650;23.248;2024-03-08T08:43:47;92665.63;;;3.75;87.20
53041;BME280;39326;42.650;23.248;2024-03-08T08:46:17;92666.75;;;3.89;86.72
53041;BME280;39326;42.650;23.248;2024-03-08T08:48:42;92656.25;;;4.05;86.50
53041;BME280;39326;42.650;23.248;2024-03-08T08:51:11;92669.41;;;4.18;86.50
53041;BME280;39326;42.650;23.248;2024-03-08T08:53:38;92666.69;;;4.30;86.62
53041;BME280;39326;42.650;23.248;2024-03-08T08:56:06;92670.44;;;4.45;86.15
53041;BME280;39326;42.650;23.248;2024-03-08T08:58:33;92662.69;;;4.67;85.69
53041;BME280;39326;42.650;23.248;2024-03-08T09:00:58;92668.91;;;4.75;85.05
53041;BME280;39326;42.650;23.248;2024-03-08T09:03:24;92662.66;;;4.83;84.60
53041;BME280;39326;42.650;23.248;2024-03-08T09:05:52;92665.03;;;4.88;82.60
53041;BME280;39326;42.650;23.248;2024-03-08T09:08:18;92662.19;;;4.97;82.72
53041;BME280;39326;42.650;23.248;2024-03-08T09:10:43;92655.38;;;4.96;82.75
53041;BME280;39326;42.650;23.248;2024-03-08T09:13:09;92656.91;;;4.97;82.50
53041;BME280;39326;42.650;23.248;2024-03-08T09:15:35;92663.84;;;4.86;81.96
53041;BME280;39326;42.650;23.248;2024-03-08T09:18:01;92662.41;;;4.88;82.19
53041;BME280;39326;42.650;23.248;2024-03-08T09:20:27;92660.50;;;4.89;81.65
53041;BME280;39326;42.650;23.248;2024-03-08T09:22:53;92665.19;;;4.80;81.65
53041;BME280;39326;42.650;23.248;2024-03-08T09:25:20;92656.59;;;4.83;81.69
53041;BME280;39326;42.650;23.248;2024-03-08T09:27:45;92659.00;;;4.88;82.06
53041;BME280;39326;42.650;23.248;2024-03-08T09:30:11;92666.72;;;4.96;81.62
53041;BME280;39326;42.650;23.248;2024-03-08T09:32:38;92666.50;;;4.70;80.02
53041;BME280;39326;42.650;23.248;2024-03-08T09:35:04;92655.94;;;4.70;79.86
53041;BME280;39326;42.650;23.248;2024-03-08T09:37:32;92663.84;;;4.86;80.23
53041;BME280;39326;42.650;23.248;2024-03-08T09:39:59;92669.22;;;4.89;80.12
53041;BME280;39326;42.650;23.248;2024-03-08T09:42:24;92667.63;;;5.04;80.50
53041;BME280;39326;42.650;23.248;2024-03-08T09:44:50;92658.44;;;4.98;78.75
53041;BME280;39326;42.650;23.248;2024-03-08T09:47:17;92665.28;;;4.99;79.61
53041;BME280;39326;42.650;23.248;2024-03-08T09:49:43;92667.13;;;5.14;78.67
53041;BME280;39326;42.650;23.248;2024-03-08T09:52:09;92664.41;;;5.30;78.20
53041;BME280;39326;42.650;23.248;2024-03-08T09:54:35;92665.88;;;5.28;76.56
53041;BME280;39326;42.650;23.248;2024-03-08T09:57:03;92667.34;;;5.25;76.59
53041;BME280;39326;42.650;23.248;2024-03-08T09:59:29;92667.16;;;5.53;76.78
53041;BME280;39326;42.650;23.248;2024-03-08T10:02:15;92666.47;;;5.75;76.02
53041;BME280;39326;42.650;23.248;2024-03-08T10:04:42;92664.22;;;5.97;75.08
53041;BME280;39326;42.650;23.248;2024-03-08T10:07:07;92664.47;;;6.11;71.49
53041;BME280;39326;42.650;23.248;2024-03-08T10:09:33;92668.66;;;6.12;72.08
53041;BME280;39326;42.650;23.248;2024-03-08T10:11:58;92668.38;;;5.98;71.94
53041;BME280;39326;42.650;23.248;2024-03-08T10:14:27;92660.94;;;6.03;72.68
53041;BME280;39326;42.650;23.248;2024-03-08T10:16:53;92669.03;;;5.91;70.12
53041;BME280;39326;42.650;23.248;2024-03-08T10:19:20;92665.75;;;5.98;70.11
53041;BME280;39326;42.650;23.248;2024-03-08T10:21:51;92671.69;;;6.34;71.38
53041;BME280;39326;42.650;23.248;2024-03-08T10:24:19;92667.91;;;6.80;71.39
53041;BME280;39326;42.650;23.248;2024-03-08T10:26:44;92665.28;;;7.07;69.88
53041;BME280;39326;42.650;23.248;2024-03-08T10:29:10;92671.19;;;6.70;67.61
53041;BME280;39326;42.650;23.248;2024-03-08T10:31:43;92662.38;;;6.89;69.05
53041;BME280;39326;42.650;23.248;2024-03-08T10:34:09;92662.69;;;7.10;67.92
53041;BME280;39326;42.650;23.248;2024-03-08T10:36:35;92659.31;;;7.14;67.37
53041;BME280;39326;42.650;23.248;2024-03-08T10:39:03;92656.41;;;7.22;68.29
53041;BME280;39326;42.650;23.248;2024-03-08T10:41:32;92662.00;;;6.91;66.42
53041;BME280;39326;42.650;23.248;2024-03-08T10:47:00;92655.66;;;7.22;66.01
53041;BME280;39326;42.650;23.248;2024-03-08T10:49:38;92653.00;;;6.69;64.70
53041;BME280;39326;42.650;23.248;2024-03-08T10:52:05;92656.31;;;6.89;67.44
53041;BME280;39326;42.650;23.248;2024-03-08T10:54:34;92648.19;;;7.04;66.39
53041;BME280;39326;42.650;23.248;2024-03-08T10:57:05;92647.13;;;7.09;65.46
53041;BME280;39326;42.650;23.248;2024-03-08T10:59:31;92639.97;;;6.60;64.79
53041;BME280;39326;42.650;23.248;2024-03-08T11:01:57;92645.53;;;6.55;65.23
53041;BME280;39326;42.650;23.248;2024-03-08T11:04:22;92638.53;;;6.89;66.60
53041;BME280;39326;42.650;23.248;2024-03-08T11:06:50;92633.03;;;7.01;65.63
53041;BME280;39326;42.650;23.248;2024-03-08T11:09:36;92635.59;;;6.98;65.16
53041;BME280;39326;42.650;23.248;2024-03-08T11:12:27;92624.31;;;7.01;64.28
53041;BME280;39326;42.650;23.248;2024-03-08T11:15:01;92627.22;;;7.22;64.23
53041;BME280;39326;42.650;23.248;2024-03-08T11:19:58;92628.53;;;7.35;63.21
53041;BME280;39326;42.650;23.248;2024-03-08T11:22:28;92618.28;;;7.34;63.49
53041;BME280;39326;42.650;23.248;2024-03-08T11:25:03;92615.34;;;7.73;60.95
53041;BME280;39326;42.650;23.248;2024-03-08T11:27:33;92612.72;;;7.76;61.32
53041;BME280;39326;42.650;23.248;2024-03-08T11:30:05;92611.78;;;7.95;60.05
53041;BME280;39326;42.650;23.248;2024-03-08T11:32:37;92604.84;;;7.87;60.61
53041;BME280;39326;42.650;23.248;2024-03-08T11:35:07;92611.59;;;8.14;61.10
53041;BME280;39326;42.650;23.248;2024-03-08T11:37:34;92606.50;;;7.99;60.43
53041;BME280;39326;42.650;23.248;2024-03-08T11:40:01;92620.88;;;8.35;59.75
53041;BME280;39326;42.650;23.248;2024-03-08T11:42:30;92604.13;;;8.27;58.60
53041;BME280;39326;42.650;23.248;2024-03-08T11:44:55;92611.06;;;8.39;58.55
53041;BME280;39326;42.650;23.248;2024-03-08T11:47:21;92612.91;;;8.35;57.88
53041;BME280;39326;42.650;23.248;2024-03-08T11:49:46;92605.53;;;8.14;59.50
53041;BME280;39326;42.650;23.248;2024-03-08T11:52:16;92592.31;;;8.21;60.38
53041;BME280;39326;42.650;23.248;2024-03-08T11:54:52;92607.75;;;8.12;58.02
53041;BME280;39326;42.650;23.248;2024-03-08T11:57:21;92610.34;;;8.05;57.63
53041;BME280;39326;42.650;23.248;2024-03-08T11:59:51;92602.94;;;8.69;58.09
53041;BME280;39326;42.650;23.248;2024-03-08T12:02:16;92599.13;;;9.25;57.73
53041;BME280;39326;42.650;23.248;2024-03-08T12:04:44;92594.28;;;9.41;55.62
53041;BME280;39326;42.650;23.248;2024-03-08T12:07:11;92592.06;;;9.61;56.18
53041;BME280;39326;42.650;23.248;2024-03-08T12:09:40;92604.84;;;9.27;55.93
53041;BME280;39326;42.650;23.248;2024-03-08T12:12:11;92599.06;;;9.11;56.46
53041;BME280;39326;42.650;23.248;2024-03-08T12:14:36;92598.41;;;9.28;56.55
53041;BME280;39326;42.650;23.248;2024-03-08T12:17:02;92596.91;;;8.72;56.53
53041;BME280;39326;42.650;23.248;2024-03-08T12:19:29;92604.38;;;8.52;56.99
53041;BME280;39326;42.650;23.248;2024-03-08T12:21:55;92604.84;;;8.68;56.59
53041;BME280;39326;42.650;23.248;2024-03-08T12:24:21;92600.00;;;7.92;56.33
53041;BME280;39326;42.650;23.248;2024-03-08T12:26:47;92593.34;;;8.09;57.70
53041;BME280;39326;42.650;23.248;2024-03-08T12:29:16;92595.25;;;8.53;57.29
53041;BME280;39326;42.650;23.248;2024-03-08T12:31:55;92596.16;;;9.37;57.18
53041;BME280;39326;42.650;23.248;2024-03-08T12:34:24;92591.28;;;9.53;55.00
53041;BME280;39326;42.650;23.248;2024-03-08T12:36:50;92585.53;;;9.44;53.85
53041;BME280;39326;42.650;23.248;2024-03-08T12:39:20;92590.72;;;10.10;53.10
53041;BME280;39326;42.650;23.248;2024-03-08T12:41:56;92594.19;;;10.71;51.60
53041;BME280;39326;42.650;23.248;2024-03-08T12:44:24;92587.31;;;10.92;51.43
53041;BME280;39326;42.650;23.248;2024-03-08T12:46:51;92583.84;;;11.16;51.62
53041;BME280;39326;42.650;23.248;2024-03-08T12:49:19;92575.44;;;11.21;50.69
53041;BME280;39326;42.650;23.248;2024-03-08T12:51:47;92573.97;;;11.02;50.64
53041;BME280;39326;42.650;23.248;2024-03-08T12:54:13;92575.38;;;11.50;49.56
53041;BME280;39326;42.650;23.248;2024-03-08T12:56:38;92562.09;;;11.14;49.42
53041;BME280;39326;42.650;23.248;2024-03-08T12:59:05;92567.78;;;11.34;49.75
53041;BME280;39326;42.650;23.248;2024-03-08T13:01:32;92561.59;;;11.65;49.64
53041;BME280;39326;42.650;23.248;2024-03-08T13:03:58;92563.03;;;11.84;48.92
53041;BME280;39326;42.650;23.248;2024-03-08T13:06:24;92561.69;;;11.26;48.07